Carlyle, Kansas
Current Conditions -  °F | °C
As of 4:52 AM on Thursday 23 Oct 2014 (Local Time) from KCNU Reporting Station
Light Rain Light Rain  
Wind Chill: 60°   Ceiling: 10000
Heat Index: 60°   Visibility: 9mi
Dew Point: 58°   Wind: 6mph
Humidity: 93%   Direction: 140°SE
Pressure: 30.11"   Gusts: NA
Location:  37.9552°N, 95.4332°W
Report Text: KCNU 230952Z AUTO 14005KT 9SM -RA SCT010 OVC100 16/14 A3011 RMK AO2 SLP189 P0003 T01560144
Loading
Personal Weather Stations






























Interactive Weather Map
Tropical Storm Tracking
New forecast layout! Learn more

10-Day Weather Forecast

Advertisements
Track Severe Weather on mobile